Time;durP1;ratioP1;P1;durP2;ratioP2;P2;SDS_P1;SDS_P2;PMS_P1;PMS_P2;Temp;Humidity;BMP_temperature;BMP_pressure;BME280_temperature;BME280_humidity;BME280_pressure;Samples;Min_cycle;Max_cycle;Signal;HPM_P1;HPM_P2
2022/04/02 00:00:45;;;;;;;12.27;8.65;;;1.00;99.90;;;;;;4986248;28;20033;-75
2022/04/02 00:03:11;;;;;;;16.60;9.75;;;1.00;99.90;;;;;;5003382;28;20046;-75
2022/04/02 00:05:36;;;;;;;15.07;9.30;;;0.90;99.90;;;;;;5006640;28;20033;-75
2022/04/02 00:08:03;;;;;;;19.33;11.05;;;0.80;99.90;;;;;;5008331;28;20037;-75
2022/04/02 00:10:28;;;;;;;20.17;12.18;;;0.80;99.90;;;;;;5007376;28;20049;-74
2022/04/02 00:12:55;;;;;;;19.00;11.25;;;0.80;99.90;;;;;;5007110;28;20036;-74
2022/04/02 00:15:22;;;;;;;19.23;11.70;;;0.80;99.90;;;;;;5002631;28;20042;-74
2022/04/02 00:17:48;;;;;;;15.13;10.25;;;0.80;99.90;;;;;;5003943;28;20056;-75
2022/04/02 00:20:13;;;;;;;18.23;11.77;;;0.80;99.90;;;;;;5006240;28;20034;-75
2022/04/02 00:23:35;;;;;;;18.85;12.02;;;0.80;99.90;;;;;;5007298;28;20050;-74
2022/04/02 00:25:24;;;;;;;18.92;10.13;;;0.80;99.90;;;;;;5010711;28;20095;-76
2022/04/02 00:27:50;;;;;;;19.05;10.25;;;0.80;99.90;;;;;;5012106;28;20033;-74
2022/04/02 00:30:16;;;;;;;18.15;11.40;;;0.80;99.90;;;;;;5009003;28;20030;-76
2022/04/02 00:32:42;;;;;;;19.10;10.95;;;0.80;99.90;;;;;;5007338;28;20096;-74
2022/04/02 00:35:09;;;;;;;19.20;11.70;;;0.80;99.90;;;;;;5009594;28;20046;-74
2022/04/02 00:37:35;;;;;;;19.80;10.77;;;0.70;99.90;;;;;;5009993;28;20064;-74
2022/04/02 00:40:00;;;;;;;18.98;10.95;;;0.70;99.90;;;;;;5004186;28;20037;-74
2022/04/02 00:42:26;;;;;;;17.08;9.77;;;0.70;99.90;;;;;;5010486;28;20041;-74
2022/04/02 00:44:52;;;;;;;23.23;12.63;;;0.70;99.90;;;;;;5003886;28;20188;-74
2022/04/02 00:47:20;;;;;;;21.63;11.93;;;0.70;99.90;;;;;;5005720;28;20120;-74
2022/04/02 00:49:46;;;;;;;19.00;11.52;;;0.70;99.90;;;;;;5007904;28;20470;-74
2022/04/02 00:52:12;;;;;;;22.40;12.85;;;0.70;99.90;;;;;;5006284;28;20049;-75
2022/04/02 00:54:39;;;;;;;19.48;10.77;;;0.70;99.90;;;;;;5009083;28;20846;-74
2022/04/02 00:57:05;;;;;;;20.25;11.57;;;0.70;99.90;;;;;;5007414;28;20026;-74
2022/04/02 00:59:30;;;;;;;16.63;10.20;;;0.60;99.90;;;;;;5003181;28;20466;-74
2022/04/02 01:01:56;;;;;;;21.75;13.15;;;0.70;99.90;;;;;;5008703;28;20052;-76
2022/04/02 01:04:22;;;;;;;23.50;13.35;;;0.60;99.90;;;;;;5005595;28;20062;-76
2022/04/02 01:06:50;;;;;;;18.38;11.95;;;0.70;99.90;;;;;;5005112;28;20061;-75
2022/04/02 01:09:15;;;;;;;17.98;11.43;;;0.70;99.90;;;;;;5000773;28;20033;-76
2022/04/02 01:11:44;;;;;;;22.13;13.95;;;0.60;99.90;;;;;;5011075;28;20034;-76
2022/04/02 01:14:10;;;;;;;26.38;14.13;;;0.60;99.90;;;;;;5005568;28;20034;-76
2022/04/02 01:16:45;;;;;;;25.48;13.50;;;0.60;99.90;;;;;;5009247;28;20061;-75
2022/04/02 01:19:11;;;;;;;27.05;14.40;;;0.60;99.90;;;;;;5003785;28;20057;-75
2022/04/02 01:21:37;;;;;;;24.08;14.15;;;0.50;99.90;;;;;;5003931;28;20507;-76
2022/04/02 01:24:04;;;;;;;24.30;14.65;;;0.50;99.90;;;;;;5007748;28;20042;-75
2022/04/02 01:26:30;;;;;;;22.88;12.98;;;0.50;99.90;;;;;;5012763;28;20029;-75
2022/04/02 01:29:00;;;;;;;23.60;12.93;;;0.50;99.90;;;;;;5005969;28;20095;-75
2022/04/02 01:31:26;;;;;;;23.05;14.38;;;0.50;99.90;;;;;;5008143;28;20046;-75
2022/04/02 01:33:53;;;;;;;22.70;12.93;;;0.50;99.90;;;;;;5008993;28;20033;-75
2022/04/02 01:36:19;;;;;;;21.45;13.05;;;0.40;99.90;;;;;;5002287;28;20029;-75
2022/04/02 01:38:46;;;;;;;22.05;13.35;;;0.50;99.90;;;;;;5005296;28;20167;-75
2022/04/02 01:41:13;;;;;;;22.05;12.45;;;0.40;99.90;;;;;;5006098;28;20122;-75
2022/04/02 01:43:38;;;;;;;24.63;13.20;;;0.40;99.90;;;;;;4986926;28;20038;-75
2022/04/02 01:46:04;;;;;;;26.23;13.88;;;0.40;99.90;;;;;;5009561;28;21027;-75
2022/04/02 01:48:31;;;;;;;25.60;13.55;;;0.40;99.90;;;;;;5009340;28;20034;-75
2022/04/02 01:50:56;;;;;;;20.00;12.48;;;0.40;99.90;;;;;;5017821;28;20157;-75
2022/04/02 01:53:24;;;;;;;22.05;12.93;;;0.40;99.90;;;;;;5006483;28;20038;-75
2022/04/02 01:55:50;;;;;;;19.30;12.02;;;0.40;99.90;;;;;;5009409;28;20095;-75
2022/04/02 01:58:16;;;;;;;20.13;12.13;;;0.40;99.90;;;;;;5011182;28;20113;-75
2022/04/02 02:00:42;;;;;;;20.85;12.38;;;0.40;99.90;;;;;;5003025;28;20198;-75
2022/04/02 02:03:08;;;;;;;21.75;11.88;;;0.40;99.90;;;;;;5007910;28;20064;-76
2022/04/02 02:05:35;;;;;;;19.08;12.05;;;0.40;99.90;;;;;;5009984;28;20033;-75
2022/04/02 02:08:00;;;;;;;19.73;12.25;;;0.40;99.90;;;;;;5003740;28;20040;-75
2022/04/02 02:10:26;;;;;;;22.58;12.95;;;0.40;99.90;;;;;;5008711;28;20435;-75
2022/04/02 02:12:52;;;;;;;21.00;12.65;;;0.30;99.90;;;;;;5003098;28;20069;-75
2022/04/02 02:15:18;;;;;;;20.40;12.02;;;0.30;99.90;;;;;;5004689;28;20048;-75
2022/04/02 02:17:47;;;;;;;21.27;11.40;;;0.20;99.90;;;;;;5013200;28;20511;-76
2022/04/02 02:20:15;;;;;;;22.98;12.98;;;0.20;99.90;;;;;;5002356;28;20036;-75
2022/04/02 02:22:41;;;;;;;22.40;13.02;;;0.30;99.90;;;;;;5004279;28;20205;-75
2022/04/02 02:25:09;;;;;;;18.30;11.48;;;0.20;99.90;;;;;;5000721;28;20393;-75
2022/04/02 02:27:35;;;;;;;17.83;11.50;;;0.20;99.90;;;;;;5009126;28;20727;-75
2022/04/02 02:30:05;;;;;;;18.48;11.43;;;0.20;99.90;;;;;;5005254;28;20381;-75
2022/04/02 02:32:35;;;;;;;17.30;11.05;;;0.10;99.90;;;;;;5002834;28;20402;-75
2022/04/02 02:37:45;;;;;;;20.02;11.90;;;0.10;99.90;;;;;;5007357;28;20088;-75
2022/04/02 02:40:12;;;;;;;18.35;12.57;;;0.10;99.90;;;;;;5004922;28;20041;-75
2022/04/02 02:42:38;;;;;;;20.90;11.85;;;0.00;99.90;;;;;;5005339;28;20069;-75
2022/04/02 02:45:04;;;;;;;22.20;13.00;;;0.10;99.90;;;;;;5002724;28;20389;-75
2022/04/02 02:47:30;;;;;;;18.17;11.82;;;0.00;99.90;;;;;;5005759;28;20057;-75
2022/04/02 02:49:56;;;;;;;21.05;11.75;;;0.10;99.90;;;;;;5000865;28;20037;-76
2022/04/02 02:52:22;;;;;;;21.70;11.07;;;0.10;99.90;;;;;;5001124;28;20038;-75
2022/04/02 02:54:47;;;;;;;31.25;12.45;;;0.00;99.90;;;;;;5002993;28;20239;-75
2022/04/02 02:57:13;;;;;;;22.58;13.52;;;0.00;99.90;;;;;;5007134;28;20465;-75
2022/04/02 02:59:39;;;;;;;24.52;13.95;;;0.00;99.90;;;;;;5009952;28;20030;-75
2022/04/02 03:02:04;;;;;;;23.00;13.73;;;0.00;99.90;;;;;;4999095;28;20046;-75
2022/04/02 03:04:30;;;;;;;19.02;11.63;;;0.00;99.90;;;;;;5005004;28;20037;-75
2022/04/02 03:06:57;;;;;;;18.75;12.43;;;-0.10;99.90;;;;;;5008795;28;20038;-75
2022/04/02 03:09:23;;;;;;;20.83;11.90;;;-0.10;99.90;;;;;;5012594;28;20029;-75
2022/04/02 03:11:49;;;;;;;22.35;12.40;;;0.00;99.90;;;;;;5003599;28;20030;-75
2022/04/02 03:14:15;;;;;;;20.13;12.55;;;0.00;99.90;;;;;;5012278;28;20088;-75
2022/04/02 03:16:41;;;;;;;27.25;13.15;;;0.00;99.90;;;;;;5002049;28;20037;-75
2022/04/02 03:19:07;;;;;;;20.80;12.60;;;0.00;99.90;;;;;;5004119;28;20386;-75
2022/04/02 03:21:33;;;;;;;20.00;11.63;;;0.00;99.90;;;;;;5004315;28;20065;-75
2022/04/02 03:23:59;;;;;;;24.88;13.38;;;0.00;99.90;;;;;;5003674;28;20465;-75
2022/04/02 03:26:26;;;;;;;21.63;12.85;;;0.00;99.90;;;;;;5004291;28;20068;-75
2022/04/02 03:28:51;;;;;;;24.55;13.85;;;0.00;99.90;;;;;;4999140;28;20433;-75
2022/04/02 03:31:17;;;;;;;24.13;14.80;;;0.00;99.90;;;;;;5000142;28;20473;-75
2022/04/02 03:33:43;;;;;;;23.50;13.55;;;0.00;99.90;;;;;;5004170;28;20536;-75
2022/04/02 03:36:10;;;;;;;23.08;13.35;;;-0.10;99.90;;;;;;5003901;28;20109;-76
2022/04/02 03:38:37;;;;;;;20.30;11.38;;;0.00;99.90;;;;;;5000865;28;20044;-75
2022/04/02 03:41:04;;;;;;;21.10;13.45;;;0.00;99.90;;;;;;4993848;28;20037;-75
2022/04/02 03:43:31;;;;;;;23.55;14.05;;;0.00;99.90;;;;;;5004818;28;20042;-75
2022/04/02 03:47:08;;;;;;;28.85;13.75;;;-0.10;99.90;;;;;;5009896;28;20034;-75
2022/04/02 03:48:42;;;;;;;20.02;12.55;;;-0.10;99.90;;;;;;5007763;28;20046;-75
2022/04/02 03:51:08;;;;;;;24.88;13.52;;;0.00;99.90;;;;;;5006560;28;20029;-75
2022/04/02 03:53:33;;;;;;;29.08;14.55;;;-0.10;99.90;;;;;;5005500;28;20638;-75
2022/04/02 03:55:59;;;;;;;22.58;14.20;;;-0.10;99.90;;;;;;4983681;28;20030;-75
2022/04/02 03:58:25;;;;;;;23.88;14.48;;;-0.10;99.90;;;;;;5012703;28;20034;-75
2022/04/02 04:00:52;;;;;;;29.35;14.90;;;-0.10;99.90;;;;;;5007279;28;20036;-75
2022/04/02 04:03:18;;;;;;;24.77;15.48;;;-0.10;99.90;;;;;;5004261;28;20038;-75
2022/04/02 04:05:43;;;;;;;28.17;14.70;;;-0.20;99.90;;;;;;5003476;28;20053;-75
2022/04/02 04:08:09;;;;;;;24.00;13.30;;;-0.20;99.90;;;;;;5007218;28;20566;-75
2022/04/02 04:10:35;;;;;;;18.55;11.75;;;-0.20;99.90;;;;;;5010901;28;20045;-75
2022/04/02 04:13:01;;;;;;;29.73;14.18;;;-0.20;99.90;;;;;;5007511;28;20782;-76
2022/04/02 04:15:27;;;;;;;22.25;13.77;;;-0.20;99.90;;;;;;5008540;28;20038;-75
2022/04/02 04:17:53;;;;;;;21.13;13.32;;;-0.20;99.90;;;;;;5003611;28;22585;-76
2022/04/02 04:20:20;;;;;;;25.63;12.95;;;-0.30;99.90;;;;;;5006171;28;20647;-75
2022/04/02 04:22:46;;;;;;;25.52;12.90;;;-0.30;99.90;;;;;;5009595;28;20392;-75
2022/04/02 04:25:11;;;;;;;25.63;12.65;;;-0.30;99.90;;;;;;5005401;28;20135;-75
2022/04/02 04:27:37;;;;;;;24.45;13.25;;;-0.30;99.90;;;;;;5009156;28;20450;-76
2022/04/02 04:30:04;;;;;;;21.13;12.63;;;-0.30;99.90;;;;;;5008115;28;20042;-76
2022/04/02 04:32:30;;;;;;;21.98;13.48;;;-0.40;99.90;;;;;;5006049;28;21061;-76
2022/04/02 04:34:55;;;;;;;24.50;12.40;;;-0.40;99.90;;;;;;5006139;28;20038;-76
2022/04/02 04:37:21;;;;;;;20.08;11.65;;;-0.40;99.90;;;;;;5006367;28;20036;-76
2022/04/02 04:39:47;;;;;;;20.38;10.60;;;-0.50;99.90;;;;;;5005942;28;20410;-76
2022/04/02 04:42:12;;;;;;;18.77;10.45;;;-0.50;99.90;;;;;;5000990;28;20116;-76
2022/04/02 04:44:38;;;;;;;18.10;11.32;;;-0.50;99.90;;;;;;5002179;28;20025;-76
2022/04/02 04:47:04;;;;;;;18.25;11.95;;;-0.50;99.90;;;;;;5005566;28;20468;-76
2022/04/02 04:49:30;;;;;;;25.30;11.70;;;-0.50;99.90;;;;;;5008735;28;20033;-76
2022/04/02 04:51:56;;;;;;;25.63;12.20;;;-0.50;99.90;;;;;;5006325;28;20029;-76
2022/04/02 04:54:21;;;;;;;17.17;10.73;;;-0.50;99.90;;;;;;5006233;28;20029;-75
2022/04/02 04:56:47;;;;;;;15.25;10.10;;;-0.50;99.90;;;;;;5004112;28;20040;-76
2022/04/02 04:59:12;;;;;;;16.60;10.23;;;-0.50;99.90;;;;;;5006621;28;20034;-76
2022/04/02 05:01:38;;;;;;;23.23;12.40;;;-0.50;99.90;;;;;;5008005;28;20070;-76
2022/04/02 05:04:07;;;;;;;20.98;11.32;;;-0.50;99.90;;;;;;5002448;28;20487;-76
2022/04/02 05:06:35;;;;;;;18.60;12.25;;;-0.50;99.90;;;;;;5009240;28;20116;-76
2022/04/02 05:09:01;;;;;;;18.52;11.70;;;-0.60;99.90;;;;;;5004358;28;20044;-75
2022/04/02 05:11:27;;;;;;;18.45;10.63;;;-0.50;99.90;;;;;;5005867;28;20026;-76
2022/04/02 05:13:52;;;;;;;18.40;10.88;;;-0.50;99.90;;;;;;5007974;28;20116;-76
2022/04/02 05:16:18;;;;;;;13.57;9.52;;;-0.50;99.90;;;;;;5006812;28;20038;-76
2022/04/02 05:18:44;;;;;;;21.30;11.65;;;-0.50;99.90;;;;;;5005048;28;20046;-76
2022/04/02 05:21:10;;;;;;;18.60;11.93;;;-0.60;99.90;;;;;;5006884;28;20156;-76
2022/04/02 05:23:36;;;;;;;22.63;11.32;;;-0.60;99.90;;;;;;5004942;28;20112;-76
2022/04/02 05:26:02;;;;;;;19.75;10.30;;;-0.50;99.90;;;;;;5006703;28;20465;-76
2022/04/02 05:28:28;;;;;;;21.80;10.65;;;-0.50;99.90;;;;;;5007511;28;21304;-76
2022/04/02 05:30:54;;;;;;;17.77;10.45;;;-0.60;99.90;;;;;;4994645;28;20034;-76
2022/04/02 05:33:21;;;;;;;18.83;11.10;;;-0.60;99.90;;;;;;5007163;28;20385;-76
2022/04/02 05:35:47;;;;;;;14.27;10.40;;;-0.50;99.90;;;;;;5007165;28;20048;-76
2022/04/02 05:38:13;;;;;;;19.73;11.95;;;-0.50;99.90;;;;;;5004183;28;20023;-76
2022/04/02 05:40:38;;;;;;;16.88;10.90;;;-0.50;99.90;;;;;;5005125;28;20350;-75
2022/04/02 05:43:05;;;;;;;15.02;9.85;;;-0.50;99.90;;;;;;5003931;28;20133;-76
2022/04/02 05:45:32;;;;;;;19.85;11.82;;;-0.50;99.90;;;;;;5011071;28;20034;-75
2022/04/02 05:47:57;;;;;;;21.20;11.60;;;-0.60;99.90;;;;;;5004469;28;21030;-75
2022/04/02 05:50:25;;;;;;;19.75;11.27;;;-0.50;99.90;;;;;;5008151;28;20068;-75
2022/04/02 05:52:52;;;;;;;20.23;13.00;;;-0.50;99.90;;;;;;5006118;28;20037;-75
2022/04/02 05:55:18;;;;;;;20.15;11.32;;;-0.60;99.90;;;;;;5003831;28;21744;-76
2022/04/02 05:57:45;;;;;;;18.35;11.95;;;-0.50;99.90;;;;;;5005655;28;20030;-76
2022/04/02 06:00:13;;;;;;;21.45;10.85;;;-0.50;99.90;;;;;;4989851;28;20029;-76
2022/04/02 06:02:40;;;;;;;18.10;11.20;;;-0.50;99.90;;;;;;4999869;28;20038;-76
2022/04/02 06:05:08;;;;;;;21.27;10.73;;;-0.60;99.90;;;;;;5009482;28;20397;-76
2022/04/02 06:07:34;;;;;;;16.98;10.23;;;-0.50;99.90;;;;;;5005682;28;20033;-76
2022/04/02 06:10:02;;;;;;;22.30;12.15;;;-0.50;99.90;;;;;;5004114;28;20058;-76
2022/04/02 06:12:28;;;;;;;18.38;10.80;;;-0.50;99.90;;;;;;4999312;28;20100;-76
2022/04/02 06:14:54;;;;;;;18.80;10.27;;;-0.50;99.90;;;;;;5003046;28;20045;-76
2022/04/02 06:17:19;;;;;;;17.52;12.13;;;-0.50;99.90;;;;;;5004829;28;20206;-76
2022/04/02 06:19:45;;;;;;;20.38;11.52;;;-0.50;99.90;;;;;;5003509;28;20072;-76
2022/04/02 06:22:11;;;;;;;23.00;11.70;;;-0.50;99.90;;;;;;5002463;28;20041;-76
2022/04/02 06:24:37;;;;;;;15.57;10.23;;;-0.50;99.90;;;;;;5005958;28;20473;-76
2022/04/02 06:27:03;;;;;;;20.48;11.63;;;-0.50;99.90;;;;;;5005503;28;20041;-76
2022/04/02 06:29:29;;;;;;;18.05;10.07;;;-0.50;99.90;;;;;;5009260;28;20034;-76
2022/04/02 06:31:55;;;;;;;20.17;11.57;;;-0.50;99.90;;;;;;5008105;28;20050;-76
2022/04/02 06:34:21;;;;;;;19.67;11.65;;;-0.50;99.90;;;;;;5006055;28;20022;-76
2022/04/02 06:36:47;;;;;;;21.25;11.23;;;-0.50;99.90;;;;;;5003762;28;20030;-75
2022/04/02 06:39:12;;;;;;;24.92;13.95;;;-0.40;99.90;;;;;;5003799;28;20746;-76
2022/04/02 06:41:38;;;;;;;20.52;10.82;;;-0.40;99.90;;;;;;5006066;28;20349;-75
2022/04/02 06:44:07;;;;;;;16.92;11.63;;;-0.40;99.90;;;;;;4997057;28;20447;-76
2022/04/02 06:46:34;;;;;;;23.30;13.15;;;-0.40;99.90;;;;;;5006180;28;20038;-76
2022/04/02 06:48:59;;;;;;;19.45;10.80;;;-0.40;99.90;;;;;;5013741;28;20125;-76
2022/04/02 06:51:26;;;;;;;14.40;9.63;;;-0.40;99.90;;;;;;5010373;28;20113;-76
2022/04/02 06:53:52;;;;;;;15.18;10.25;;;-0.40;99.90;;;;;;5009324;28;20045;-77
2022/04/02 06:56:18;;;;;;;24.25;10.95;;;-0.40;99.90;;;;;;4993757;28;20037;-76
2022/04/02 06:58:44;;;;;;;13.55;8.35;;;-0.40;99.90;;;;;;5004249;28;20034;-76
2022/04/02 07:01:10;;;;;;;19.08;11.05;;;-0.40;99.90;;;;;;5006287;28;20157;-77
2022/04/02 07:03:36;;;;;;;13.80;7.72;;;-0.40;99.90;;;;;;5010423;28;20045;-77
2022/04/02 07:06:02;;;;;;;15.07;10.52;;;-0.40;99.90;;;;;;5010858;28;20394;-77
2022/04/02 07:08:27;;;;;;;17.13;9.10;;;-0.40;99.90;;;;;;5007906;28;20026;-76
2022/04/02 07:10:53;;;;;;;16.15;10.48;;;-0.30;99.90;;;;;;5000094;28;20034;-77
2022/04/02 07:13:19;;;;;;;18.98;11.18;;;-0.40;99.90;;;;;;5006513;28;20022;-76
2022/04/02 07:15:44;;;;;;;15.73;10.43;;;-0.30;99.90;;;;;;5012354;28;20052;-76
2022/04/02 07:18:10;;;;;;;21.45;12.63;;;-0.40;99.90;;;;;;5006280;28;20046;-76
2022/04/02 07:20:38;;;;;;;15.63;11.18;;;-0.30;99.90;;;;;;5003514;28;21006;-76
2022/04/02 07:23:08;;;;;;;16.30;10.20;;;-0.30;99.90;;;;;;5002429;28;20095;-76
2022/04/02 07:25:39;;;;;;;25.25;11.52;;;-0.30;99.90;;;;;;5005673;28;20087;-76
2022/04/02 07:28:06;;;;;;;16.83;11.18;;;-0.30;99.90;;;;;;5009424;28;20037;-77
2022/04/02 07:30:33;;;;;;;18.42;10.70;;;-0.30;99.90;;;;;;5009460;28;20034;-77
2022/04/02 07:32:59;;;;;;;22.38;10.95;;;-0.30;99.90;;;;;;5014496;28;20369;-78
2022/04/02 07:35:53;;;;;;;16.10;10.77;;;-0.30;99.90;;;;;;5014709;28;20037;-79
2022/04/02 07:38:32;;;;;;;16.08;10.90;;;-0.30;99.90;;;;;;5009982;28;20034;-78
2022/04/02 07:41:14;;;;;;;20.17;12.32;;;-0.30;99.90;;;;;;5005445;28;20554;-76
2022/04/02 07:43:47;;;;;;;11.82;7.25;;;-0.30;99.90;;;;;;5008471;28;20464;-75
2022/04/02 07:46:18;;;;;;;22.77;13.68;;;-0.30;99.90;;;;;;5007053;28;20038;-76
2022/04/02 07:48:50;;;;;;;20.55;13.40;;;-0.30;99.90;;;;;;5011352;28;20034;-76
2022/04/02 07:51:18;;;;;;;17.67;10.77;;;-0.30;99.90;;;;;;5008444;28;20093;-76
2022/04/02 07:53:44;;;;;;;15.98;10.27;;;-0.30;99.90;;;;;;5005474;28;20045;-76
2022/04/02 07:56:15;;;;;;;13.93;8.75;;;-0.40;99.90;;;;;;4990206;28;20042;-76
2022/04/02 07:58:45;;;;;;;17.33;11.25;;;-0.40;99.90;;;;;;5005671;28;20034;-76
2022/04/02 08:01:14;;;;;;;19.38;11.65;;;-0.40;99.90;;;;;;4999825;28;20066;-76
2022/04/02 08:03:43;;;;;;;22.08;12.10;;;-0.40;99.90;;;;;;5001546;28;20040;-76
2022/04/02 08:06:09;;;;;;;17.10;10.25;;;-0.40;99.90;;;;;;5003746;28;20045;-76
2022/04/02 08:08:36;;;;;;;19.27;12.18;;;-0.40;99.90;;;;;;4984282;28;20389;-76
2022/04/02 08:11:02;;;;;;;23.58;13.90;;;-0.30;99.90;;;;;;5002658;28;20045;-77
2022/04/02 08:13:29;;;;;;;24.88;12.20;;;-0.20;99.90;;;;;;5009427;28;20041;-77
2022/04/02 08:15:57;;;;;;;21.48;13.00;;;-0.20;99.90;;;;;;5003573;28;20029;-77
2022/04/02 08:18:26;;;;;;;25.80;14.32;;;-0.30;99.90;;;;;;5005146;28;20092;-77
2022/04/02 08:20:54;;;;;;;20.73;12.23;;;-0.20;99.90;;;;;;5006717;28;20041;-77
2022/04/02 08:23:21;;;;;;;25.15;12.95;;;-0.20;99.90;;;;;;5013269;28;20092;-78
2022/04/02 08:26:18;;;;;;;20.77;11.85;;;-0.20;99.90;;;;;;5009219;28;20041;-76
2022/04/02 08:29:09;;;;;;;23.30;12.50;;;-0.20;99.90;;;;;;4961338;28;20675;-77
2022/04/02 08:31:57;;;;;;;23.77;12.85;;;-0.20;99.90;;;;;;5005636;28;20096;-77
2022/04/02 08:34:53;;;;;;;20.80;13.05;;;-0.10;99.90;;;;;;5005015;28;20121;-77
2022/04/02 08:37:29;;;;;;;21.90;12.40;;;-0.10;99.90;;;;;;5006883;28;20061;-77
2022/04/02 08:40:28;;;;;;;21.58;12.77;;;-0.10;99.90;;;;;;5006458;28;20045;-77
2022/04/02 08:43:24;;;;;;;18.67;13.23;;;-0.10;99.90;;;;;;5005334;28;20037;-76
2022/04/02 08:46:02;;;;;;;21.95;12.85;;;-0.10;99.90;;;;;;5006432;28;20365;-76
2022/04/02 08:48:29;;;;;;;17.92;11.40;;;0.00;99.90;;;;;;5007853;28;20037;-77
2022/04/02 08:51:14;;;;;;;23.90;13.05;;;0.00;99.90;;;;;;5006755;28;20030;-77
2022/04/02 08:53:47;;;;;;;21.73;13.65;;;0.00;99.90;;;;;;5007757;28;20032;-77
2022/04/02 08:56:20;;;;;;;22.40;12.70;;;0.00;99.90;;;;;;5004407;28;20497;-77
2022/04/02 08:58:58;;;;;;;20.15;12.38;;;0.00;99.90;;;;;;5007882;28;20042;-77
2022/04/02 09:01:28;;;;;;;25.05;13.65;;;0.00;99.90;;;;;;5003697;28;20124;-77
2022/04/02 09:04:31;;;;;;;28.00;14.23;;;0.10;99.90;;;;;;5008971;28;20038;-77
2022/04/02 09:07:11;;;;;;;22.73;13.45;;;0.10;99.90;;;;;;5005845;28;20030;-78
2022/04/02 09:09:46;;;;;;;23.58;13.00;;;0.00;99.90;;;;;;5007532;28;20100;-76
2022/04/02 09:12:40;;;;;;;20.55;13.23;;;0.00;99.90;;;;;;5003814;28;20064;-77
2022/04/02 09:15:23;;;;;;;28.85;14.30;;;0.10;99.90;;;;;;4981819;28;20371;-77
2022/04/02 09:18:07;;;;;;;23.10;12.45;;;0.10;99.90;;;;;;5004819;28;20481;-77
2022/04/02 09:20:56;;;;;;;22.80;12.43;;;0.10;99.90;;;;;;5006896;28;20038;-77
2022/04/02 09:23:25;;;;;;;23.13;12.50;;;0.10;99.90;;;;;;5005823;28;20473;-76
2022/04/02 09:25:59;;;;;;;22.08;12.35;;;0.10;99.90;;;;;;5004518;28;20036;-76
2022/04/02 09:29:03;;;;;;;22.25;12.30;;;0.10;99.90;;;;;;5005132;28;20029;-76
2022/04/02 09:32:07;;;;;;;20.58;11.70;;;0.20;99.90;;;;;;5002968;28;20042;-75
2022/04/02 09:35:14;;;;;;;18.90;11.30;;;0.20;99.90;;;;;;5004887;28;20076;-76
2022/04/02 09:38:14;;;;;;;17.58;10.18;;;0.20;99.90;;;;;;5002605;28;20029;-76
2022/04/02 09:40:48;;;;;;;21.85;11.35;;;0.20;99.90;;;;;;5003191;28;20258;-76
2022/04/02 09:43:30;;;;;;;23.38;12.00;;;0.20;99.90;;;;;;5006340;28;20034;-75
2022/04/02 09:46:10;;;;;;;22.70;13.02;;;0.20;99.90;;;;;;5001404;28;20026;-75
2022/04/02 09:48:49;;;;;;;22.35;12.40;;;0.20;99.90;;;;;;5002895;28;20034;-75
2022/04/02 09:51:19;;;;;;;20.15;11.35;;;0.20;99.90;;;;;;5004934;28;20049;-75
2022/04/02 09:54:12;;;;;;;22.17;12.60;;;0.10;99.90;;;;;;5006579;28;20096;-76
2022/04/02 09:56:45;;;;;;;18.17;10.85;;;0.20;99.90;;;;;;5004076;28;20022;-76
2022/04/02 09:59:22;;;;;;;18.58;10.52;;;0.20;99.90;;;;;;5004824;28;20029;-76
2022/04/02 10:01:58;;;;;;;20.25;10.65;;;0.30;99.90;;;;;;4986134;28;20038;-76
2022/04/02 10:04:42;;;;;;;19.30;13.02;;;0.30;99.90;;;;;;4988942;28;20107;-76
2022/04/02 10:07:22;;;;;;;18.23;11.10;;;0.20;99.90;;;;;;5002503;28;20034;-75
2022/04/02 10:09:53;;;;;;;20.48;11.88;;;0.30;99.90;;;;;;4984078;28;20026;-76
2022/04/02 10:12:19;;;;;;;18.92;11.75;;;0.30;99.90;;;;;;5001671;28;20030;-76
2022/04/02 10:14:47;;;;;;;17.13;9.88;;;0.40;99.90;;;;;;5004564;28;20489;-75
2022/04/02 10:17:14;;;;;;;19.55;11.85;;;0.40;99.90;;;;;;4981338;28;20061;-76
2022/04/02 10:19:40;;;;;;;18.05;10.52;;;0.40;99.90;;;;;;5003101;28;20042;-76
2022/04/02 10:22:10;;;;;;;18.10;9.50;;;0.40;99.90;;;;;;5003242;28;20100;-75
2022/04/02 10:24:50;;;;;;;16.85;9.60;;;0.40;99.90;;;;;;4999970;28;20037;-75
2022/04/02 10:27:34;;;;;;;22.38;12.00;;;0.40;99.90;;;;;;4992414;28;21248;-76
2022/04/02 10:30:00;;;;;;;20.60;11.95;;;0.40;99.90;;;;;;4990815;28;20462;-75
2022/04/02 10:32:45;;;;;;;16.98;10.77;;;0.30;99.90;;;;;;4990181;28;20549;-76
2022/04/02 10:35:13;;;;;;;18.42;11.43;;;0.30;99.90;;;;;;4993468;28;20034;-75
2022/04/02 10:37:39;;;;;;;20.55;10.43;;;0.30;99.90;;;;;;4997041;28;20028;-75
2022/04/02 10:40:13;;;;;;;16.50;10.88;;;0.30;99.90;;;;;;4994916;28;20057;-75
2022/04/02 10:42:49;;;;;;;18.90;10.75;;;0.30;99.90;;;;;;4995079;28;20084;-75
2022/04/02 10:45:18;;;;;;;13.75;9.35;;;0.30;99.90;;;;;;4993454;28;20095;-75
2022/04/02 10:47:54;;;;;;;16.95;10.82;;;0.30;99.90;;;;;;4993487;28;20033;-75
2022/04/02 10:50:22;;;;;;;16.67;10.40;;;0.30;99.90;;;;;;4991093;28;20034;-76
2022/04/02 10:52:49;;;;;;;;;;;0.30;99.90;;;;;;4987392;28;20048;-76
2022/04/02 10:55:17;;;;;;;17.77;10.23;;;0.30;99.90;;;;;;4971744;28;19917;-76
2022/04/02 10:57:44;;;;;;;12.40;10.10;;;0.20;99.90;;;;;;4992001;28;20045;-76
2022/04/02 11:00:11;;;;;;;17.67;10.93;;;0.20;99.90;;;;;;4992840;28;20045;-76
2022/04/02 11:02:37;;;;;;;15.60;8.90;;;0.20;99.90;;;;;;4994094;28;20054;-75
2022/04/02 11:05:07;;;;;;;16.85;10.13;;;0.30;99.90;;;;;;4995748;28;20037;-76
2022/04/02 11:07:48;;;;;;;16.13;9.35;;;0.30;99.90;;;;;;4976050;28;20066;-76
2022/04/02 11:10:17;;;;;;;16.13;9.43;;;0.30;99.90;;;;;;4992938;28;20069;-76
2022/04/02 11:12:44;;;;;;;17.55;9.55;;;0.30;99.90;;;;;;4994702;28;20038;-76
2022/04/02 11:15:23;;;;;;;15.23;9.93;;;0.30;99.90;;;;;;4992974;28;20121;-76
2022/04/02 11:17:54;;;;;;;15.27;9.25;;;0.30;99.90;;;;;;4995008;28;20061;-76
2022/04/02 11:20:22;;;;;;;14.55;9.18;;;0.30;99.90;;;;;;4975615;28;20389;-76
2022/04/02 11:22:51;;;;;;;21.90;9.35;;;0.30;99.90;;;;;;4992538;28;20048;-75
2022/04/02 11:25:24;;;;;;;15.45;9.00;;;0.40;99.90;;;;;;4994269;28;20041;-76
2022/04/02 11:27:54;;;;;;;14.48;8.65;;;0.40;99.90;;;;;;4974715;28;20602;-75
2022/04/02 11:30:21;;;;;;;18.42;9.95;;;0.40;99.90;;;;;;4991687;28;20070;-76
2022/04/02 11:32:50;;;;;;;15.50;9.40;;;0.40;99.90;;;;;;4994347;28;20450;-75
2022/04/02 11:35:22;;;;;;;18.88;9.48;;;0.40;99.90;;;;;;4997748;28;20575;-76
2022/04/02 11:38:07;;;;;;;14.93;8.82;;;0.40;99.90;;;;;;4997201;28;20075;-75
2022/04/02 11:40:34;;;;;;;15.50;10.55;;;0.40;99.90;;;;;;4993641;28;20083;-76
2022/04/02 11:43:02;;;;;;;14.00;9.50;;;0.40;99.90;;;;;;4995019;28;20215;-75
2022/04/02 11:45:32;;;;;;;12.82;8.65;;;0.50;99.90;;;;;;4996645;28;20030;-76
2022/04/02 11:48:18;;;;;;;18.65;10.63;;;0.50;99.90;;;;;;4992497;28;20041;-76
2022/04/02 11:50:45;;;;;;;13.23;8.45;;;0.50;99.90;;;;;;4992002;28;20034;-75
2022/04/02 11:53:12;;;;;;;14.93;8.75;;;0.50;99.90;;;;;;4994199;28;20040;-76
2022/04/02 11:55:40;;;;;;;15.25;8.63;;;0.50;99.90;;;;;;5003422;28;20125;-76
2022/04/02 11:58:12;;;;;;;11.57;8.18;;;0.50;99.90;;;;;;5005091;28;20030;-75
2022/04/02 12:00:43;;;;;;;16.00;10.50;;;0.40;99.90;;;;;;5000456;28;20355;-75
2022/04/02 12:03:21;;;;;;;16.10;9.50;;;0.40;99.90;;;;;;4993263;28;20034;-76
2022/04/02 12:05:48;;;;;;;;;;;0.30;99.90;;;;;;4996968;28;20573;-75
2022/04/02 12:08:27;;;;;;;14.30;8.95;;;0.30;99.90;;;;;;4994225;28;20284;-76
2022/04/02 12:10:53;;;;;;;11.48;8.15;;;0.30;99.90;;;;;;4994436;28;20031;-75
2022/04/02 12:13:18;;;;;;;16.17;8.95;;;0.20;99.90;;;;;;4997275;28;20037;-76
2022/04/02 12:16:13;;;;;;;12.77;8.40;;;0.30;99.90;;;;;;4995939;28;20041;-76
2022/04/02 12:18:57;;;;;;;11.27;6.60;;;0.20;99.90;;;;;;4995041;28;20135;-76
2022/04/02 12:21:43;;;;;;;14.05;8.90;;;0.20;99.90;;;;;;4997400;28;20038;-76
2022/04/02 12:24:11;;;;;;;13.38;8.43;;;0.20;99.90;;;;;;4997533;28;20034;-76
2022/04/02 12:26:37;;;;;;;11.67;8.13;;;0.10;99.90;;;;;;4995059;28;20061;-76
2022/04/02 12:29:04;;;;;;;9.85;7.32;;;0.10;99.90;;;;;;4996707;28;20053;-76
2022/04/02 12:31:31;;;;;;;14.32;8.82;;;0.20;99.90;;;;;;4996367;28;20034;-76
2022/04/02 12:34:00;;;;;;;13.43;9.07;;;0.10;99.90;;;;;;4997128;28;20091;-76
2022/04/02 12:36:34;;;;;;;10.25;6.80;;;0.00;99.90;;;;;;4996721;28;20030;-76
2022/04/02 12:39:08;;;;;;;9.80;7.43;;;0.00;99.90;;;;;;4996194;28;20034;-77
2022/04/02 12:41:48;;;;;;;13.13;7.97;;;0.00;99.90;;;;;;4996466;28;20037;-77
2022/04/02 12:44:19;;;;;;;11.82;6.85;;;0.10;99.90;;;;;;5000189;28;20524;-77
2022/04/02 12:46:45;;;;;;;15.38;6.78;;;0.00;99.90;;;;;;4996157;28;20049;-76
2022/04/02 12:49:31;;;;;;;12.30;8.20;;;0.10;99.90;;;;;;5001640;28;20513;-77
2022/04/02 12:52:09;;;;;;;17.63;10.88;;;0.10;99.90;;;;;;4996806;28;20516;-76